createdAt,value
2022-07-28T00:01:27.537Z,17.20
2022-07-28T00:04:02.204Z,17.10
2022-07-28T00:06:39.921Z,17.10
2022-07-28T00:09:10.521Z,17.10
2022-07-28T00:11:54.223Z,17.10
2022-07-28T00:14:24.752Z,17.10
2022-07-28T00:17:04.042Z,17.00
2022-07-28T00:19:32.380Z,17.00
2022-07-28T00:22:04.741Z,17.00
2022-07-28T00:24:35.640Z,16.90
2022-07-28T00:31:29.368Z,16.80
2022-07-28T00:45:06.721Z,16.60
2022-07-28T00:52:59.530Z,16.50
2022-07-28T00:56:05.569Z,16.60
2022-07-28T00:59:00.271Z,16.40
2022-07-28T01:01:59.815Z,16.20
2022-07-28T01:04:52.020Z,16.20
2022-07-28T01:08:21.262Z,16.20
2022-07-28T01:11:04.915Z,16.10
2022-07-28T01:13:59.922Z,16.00
2022-07-28T01:19:38.002Z,16.10
2022-07-28T01:22:12.483Z,16.10
2022-07-28T01:24:53.563Z,16.10
2022-07-28T01:27:36.935Z,16.10
2022-07-28T01:30:12.015Z,16.10
2022-07-28T01:32:51.298Z,16.00
2022-07-28T01:35:31.731Z,16.00
2022-07-28T01:38:05.612Z,15.90
2022-07-28T01:40:37.479Z,15.90
2022-07-28T01:43:12.480Z,15.90
2022-07-28T01:45:44.558Z,15.80
2022-07-28T01:48:18.779Z,15.80
2022-07-28T01:50:49.931Z,15.80
2022-07-28T01:53:18.875Z,15.80
2022-07-28T01:55:51.141Z,15.70
2022-07-28T01:58:23.576Z,15.70
2022-07-28T02:00:53.544Z,15.60
2022-07-28T02:03:30.106Z,15.50
2022-07-28T02:05:59.563Z,15.50
2022-07-28T02:08:33.490Z,15.40
2022-07-28T02:11:23.617Z,15.40
2022-07-28T02:13:53.572Z,15.30
2022-07-28T02:16:26.598Z,15.10
2022-07-28T02:18:59.539Z,15.20
2022-07-28T02:21:31.257Z,15.20
2022-07-28T02:24:03.573Z,15.30
2022-07-28T02:26:39.660Z,15.40
2022-07-28T02:29:33.498Z,15.40
2022-07-28T02:32:24.005Z,15.40
2022-07-28T02:35:09.380Z,15.40
2022-07-28T02:37:40.930Z,15.40
2022-07-28T02:40:14.749Z,15.40
2022-07-28T02:42:46.834Z,15.30
2022-07-28T02:45:22.935Z,15.30
2022-07-28T02:47:57.539Z,15.30
2022-07-28T02:50:30.613Z,15.30
2022-07-28T02:53:15.173Z,15.20
2022-07-28T02:55:47.586Z,15.20
2022-07-28T02:58:18.980Z,15.20
2022-07-28T03:00:48.622Z,15.10
2022-07-28T03:03:18.468Z,14.80
2022-07-28T03:06:12.221Z,14.70
2022-07-28T03:08:41.469Z,14.80
2022-07-28T03:11:15.654Z,14.70
2022-07-28T03:13:44.766Z,14.70
2022-07-28T03:16:14.554Z,14.80
2022-07-28T03:18:43.596Z,14.80
2022-07-28T03:21:16.659Z,14.80
2022-07-28T03:23:52.700Z,14.80
2022-07-28T03:26:29.146Z,14.80
2022-07-28T03:29:00.632Z,14.80
2022-07-28T03:31:30.451Z,14.80
2022-07-28T03:33:59.572Z,14.60
2022-07-28T03:36:40.487Z,14.60
2022-07-28T03:39:12.075Z,14.70
2022-07-28T03:41:46.284Z,14.70
2022-07-28T03:44:27.763Z,14.80
2022-07-28T03:46:57.609Z,14.80
2022-07-28T03:49:30.095Z,14.80
2022-07-28T03:52:03.399Z,14.90
2022-07-28T03:54:32.501Z,14.90
2022-07-28T03:57:01.569Z,14.90
2022-07-28T03:59:29.746Z,14.90
2022-07-28T04:02:00.121Z,15.00
2022-07-28T04:04:28.199Z,15.10
2022-07-28T04:06:56.578Z,15.10
2022-07-28T04:09:26.586Z,15.10
2022-07-28T04:11:55.578Z,15.20
2022-07-28T04:14:27.116Z,15.30
2022-07-28T04:16:58.317Z,15.30
2022-07-28T04:19:26.506Z,15.40
2022-07-28T04:21:55.654Z,15.50
2022-07-28T04:24:24.973Z,15.50
2022-07-28T04:26:53.146Z,15.50
2022-07-28T04:29:27.118Z,15.50
2022-07-28T04:31:55.810Z,15.60
2022-07-28T04:34:24.782Z,15.60
2022-07-28T04:36:53.200Z,15.70
2022-07-28T04:39:21.772Z,15.70
2022-07-28T04:41:52.343Z,15.70
2022-07-28T04:44:21.146Z,15.80
2022-07-28T04:46:49.283Z,15.90
2022-07-28T04:49:17.397Z,15.90
2022-07-28T04:51:51.520Z,16.00
2022-07-28T04:54:26.672Z,16.10
2022-07-28T04:56:59.565Z,16.10
2022-07-28T04:59:31.088Z,16.20
2022-07-28T05:02:01.728Z,16.20
2022-07-28T05:04:30.741Z,16.20
2022-07-28T05:06:58.894Z,16.30
2022-07-28T05:09:28.052Z,16.30
2022-07-28T05:11:57.418Z,16.30
2022-07-28T05:14:25.653Z,16.40
2022-07-28T05:16:54.824Z,16.50
2022-07-28T05:19:23.701Z,16.40
2022-07-28T05:21:55.625Z,16.40
2022-07-28T05:24:27.391Z,16.50
2022-07-28T05:26:57.581Z,16.40
2022-07-28T05:29:35.160Z,16.40
2022-07-28T05:32:17.209Z,16.40
2022-07-28T05:34:46.218Z,16.30
2022-07-28T05:37:14.278Z,16.40
2022-07-28T05:39:44.860Z,16.40
2022-07-28T05:42:15.901Z,16.40
2022-07-28T05:44:50.521Z,16.50
2022-07-28T05:47:20.163Z,16.60
2022-07-28T05:49:52.309Z,16.60
2022-07-28T05:52:21.588Z,16.70
2022-07-28T05:54:50.537Z,16.80
2022-07-28T05:57:20.656Z,16.90
2022-07-28T05:59:49.693Z,17.00
2022-07-28T06:02:19.337Z,17.00
2022-07-28T06:04:47.570Z,17.10
2022-07-28T06:07:16.204Z,17.10
2022-07-28T06:09:45.355Z,17.20
2022-07-28T06:12:13.744Z,17.30
2022-07-28T06:14:45.891Z,17.40
2022-07-28T06:17:15.570Z,17.50
2022-07-28T06:19:44.669Z,17.50
2022-07-28T06:22:15.557Z,17.60
2022-07-28T06:24:44.666Z,17.70
2022-07-28T06:27:16.180Z,17.70
2022-07-28T06:29:45.575Z,17.80
2022-07-28T06:32:16.628Z,17.70
2022-07-28T06:34:45.654Z,17.80
2022-07-28T06:37:13.705Z,17.80
2022-07-28T06:39:42.996Z,17.90
2022-07-28T06:42:11.665Z,17.90
2022-07-28T06:44:57.947Z,18.00
2022-07-28T06:47:28.580Z,18.10
2022-07-28T06:50:00.777Z,18.00
2022-07-28T06:52:29.694Z,18.00
2022-07-28T06:55:00.466Z,18.10
2022-07-28T06:57:35.678Z,18.10
2022-07-28T07:00:07.010Z,18.20
2022-07-28T07:02:42.670Z,18.20
2022-07-28T07:05:12.694Z,18.20
2022-07-28T07:07:43.604Z,18.10
2022-07-28T07:10:13.965Z,18.10
2022-07-28T07:12:44.253Z,18.10
2022-07-28T07:15:13.736Z,18.20
2022-07-28T07:17:43.711Z,18.20
2022-07-28T07:20:14.355Z,18.40
2022-07-28T07:22:46.513Z,18.40
2022-07-28T07:25:17.785Z,18.40
2022-07-28T07:27:46.706Z,18.40
2022-07-28T07:30:20.345Z,18.40
2022-07-28T07:32:50.702Z,18.50
2022-07-28T07:35:20.190Z,18.50
2022-07-28T07:37:48.294Z,18.60
2022-07-28T07:40:16.713Z,18.60
2022-07-28T07:42:44.750Z,18.70
2022-07-28T07:45:15.753Z,18.70
2022-07-28T07:47:43.815Z,18.70
2022-07-28T07:50:13.829Z,18.70
2022-07-28T07:52:42.788Z,18.70
2022-07-28T07:55:11.284Z,18.80
2022-07-28T07:57:43.217Z,18.90
2022-07-28T08:00:27.828Z,18.90
2022-07-28T08:02:58.958Z,19.10
2022-07-28T08:05:34.968Z,19.20
2022-07-28T08:08:05.925Z,19.30
2022-07-28T08:10:34.769Z,19.30
2022-07-28T08:13:07.642Z,19.40
2022-07-28T08:15:38.226Z,19.40
2022-07-28T08:18:07.923Z,19.50
2022-07-28T08:20:38.792Z,19.50
2022-07-28T08:23:09.848Z,19.50
2022-07-28T08:25:38.837Z,19.40
2022-07-28T08:28:07.085Z,19.50
2022-07-28T08:30:35.355Z,19.60
2022-07-28T08:33:03.451Z,19.60
2022-07-28T08:35:35.831Z,19.70
2022-07-28T08:38:08.268Z,19.60
2022-07-28T08:40:43.090Z,19.60
2022-07-28T08:43:29.982Z,19.70
2022-07-28T08:46:01.243Z,19.60
2022-07-28T08:48:32.320Z,19.70
2022-07-28T08:51:03.481Z,19.90
2022-07-28T08:53:33.795Z,20.00
2022-07-28T08:56:08.471Z,19.90
2022-07-28T08:58:39.658Z,20.00
2022-07-28T09:01:10.953Z,20.00
2022-07-28T09:03:43.676Z,20.00
2022-07-28T09:06:12.771Z,20.00
2022-07-28T09:08:43.667Z,20.10
2022-07-28T09:11:12.763Z,20.10
2022-07-28T09:13:45.711Z,20.00
2022-07-28T09:16:16.093Z,20.00
2022-07-28T09:18:44.855Z,20.10
2022-07-28T09:21:18.312Z,20.20
2022-07-28T09:23:49.889Z,20.10
2022-07-28T09:26:18.924Z,20.10
2022-07-28T09:28:52.336Z,20.00
2022-07-28T09:31:22.853Z,20.00
2022-07-28T09:34:01.689Z,20.20
2022-07-28T09:36:31.761Z,20.10
2022-07-28T09:39:01.878Z,20.10
2022-07-28T09:41:30.357Z,20.20
2022-07-28T09:44:02.246Z,20.10
2022-07-28T09:46:31.049Z,20.20
2022-07-28T09:49:02.427Z,20.20
2022-07-28T09:51:33.483Z,20.30
2022-07-28T09:54:12.093Z,20.20
2022-07-28T09:56:43.361Z,20.20
2022-07-28T09:59:12.747Z,20.30
2022-07-28T10:01:54.885Z,20.30
2022-07-28T10:04:34.723Z,20.40
2022-07-28T10:07:06.616Z,20.30
2022-07-28T10:09:36.860Z,20.30
2022-07-28T10:12:19.857Z,20.30
2022-07-28T10:14:52.769Z,20.40
2022-07-28T10:17:25.546Z,20.50
2022-07-28T10:19:57.953Z,20.60
2022-07-28T10:22:29.285Z,20.70
2022-07-28T10:25:01.818Z,20.70
2022-07-28T10:27:33.884Z,20.60
2022-07-28T10:30:04.832Z,20.70
2022-07-28T10:32:37.882Z,20.70
2022-07-28T10:35:09.894Z,20.70
2022-07-28T10:37:44.711Z,20.70
2022-07-28T10:40:17.719Z,20.80
2022-07-28T10:42:46.076Z,20.90
2022-07-28T10:45:15.510Z,21.00
2022-07-28T10:47:44.708Z,21.10
2022-07-28T10:50:14.538Z,21.10
2022-07-28T10:52:49.123Z,21.10
2022-07-28T10:55:32.132Z,21.10
2022-07-28T10:58:11.374Z,21.20
2022-07-28T11:00:56.062Z,21.30
2022-07-28T11:03:47.396Z,21.40
2022-07-28T11:06:27.813Z,21.50
2022-07-28T11:08:56.818Z,21.60
2022-07-28T11:11:50.090Z,21.60
2022-07-28T11:14:37.280Z,21.60
2022-07-28T11:17:24.499Z,21.60
2022-07-28T11:22:52.106Z,21.70
2022-07-28T11:25:22.597Z,22.00
2022-07-28T11:28:07.490Z,22.00
2022-07-28T11:30:54.377Z,22.10
2022-07-28T11:33:25.730Z,22.10
2022-07-28T11:36:00.249Z,21.80
2022-07-28T11:38:30.884Z,21.90
2022-07-28T11:40:59.865Z,22.00
2022-07-28T11:43:38.918Z,22.00
2022-07-28T11:46:37.591Z,22.10
2022-07-28T11:49:34.592Z,22.20
2022-07-28T11:52:27.878Z,22.30
2022-07-28T11:54:58.164Z,22.40
2022-07-28T11:57:31.677Z,22.50
2022-07-28T12:00:03.546Z,22.60
2022-07-28T12:02:39.524Z,22.60
2022-07-28T12:05:10.988Z,22.60
2022-07-28T12:07:49.470Z,22.70
2022-07-28T12:13:29.766Z,23.00
2022-07-28T12:15:59.857Z,23.10
2022-07-28T12:18:28.228Z,23.20
2022-07-28T12:21:04.874Z,23.30
2022-07-28T12:23:45.987Z,23.20
2022-07-28T12:26:31.873Z,23.10
2022-07-28T12:29:04.165Z,22.90
2022-07-28T12:31:38.388Z,23.00
2022-07-28T12:34:11.663Z,23.10
2022-07-28T12:36:40.817Z,23.10
2022-07-28T12:39:13.134Z,23.00
2022-07-28T12:41:45.580Z,23.10
2022-07-28T12:44:14.212Z,23.20
2022-07-28T12:46:49.813Z,23.40
2022-07-28T12:49:22.932Z,23.40
2022-07-28T12:51:51.230Z,23.50
2022-07-28T12:54:19.316Z,23.70
2022-07-28T12:56:50.063Z,23.70
2022-07-28T12:59:21.928Z,23.50
2022-07-28T13:01:54.001Z,23.60
2022-07-28T13:04:44.211Z,23.60
2022-07-28T13:07:14.916Z,23.70
2022-07-28T13:09:53.255Z,23.70
2022-07-28T13:12:30.935Z,23.80
2022-07-28T13:15:00.820Z,24.00
2022-07-28T13:17:49.006Z,24.30
2022-07-28T13:20:18.194Z,24.20
2022-07-28T13:22:46.779Z,24.50
2022-07-28T13:25:17.174Z,24.80
2022-07-28T13:27:48.547Z,24.60
2022-07-28T13:30:21.141Z,24.40
2022-07-28T13:32:54.961Z,24.20
2022-07-28T13:35:23.935Z,24.50
2022-07-28T13:37:52.919Z,24.60
2022-07-28T13:40:22.396Z,24.90
2022-07-28T13:42:53.323Z,25.30
2022-07-28T13:45:25.300Z,25.70
2022-07-28T13:47:59.412Z,25.80
2022-07-28T13:50:29.036Z,26.10
2022-07-28T13:52:57.202Z,26.10
2022-07-28T13:55:27.295Z,26.40
2022-07-28T13:57:56.573Z,26.40
2022-07-28T14:00:25.238Z,25.90
2022-07-28T14:02:54.467Z,26.40
2022-07-28T14:05:24.157Z,27.40
2022-07-28T14:08:04.318Z,27.60
2022-07-28T14:10:32.972Z,26.70
2022-07-28T14:13:01.960Z,27.10
2022-07-28T14:15:30.176Z,27.90
2022-07-28T14:17:58.485Z,28.80
2022-07-28T14:20:31.600Z,29.60
2022-07-28T14:23:00.764Z,29.90
2022-07-28T14:25:41.653Z,30.70
2022-07-28T14:28:20.472Z,30.30
2022-07-28T14:30:48.548Z,29.50
2022-07-28T14:33:16.644Z,29.00
2022-07-28T14:35:47.013Z,29.20
2022-07-28T14:38:51.245Z,29.90
2022-07-28T14:41:03.866Z,30.50
2022-07-28T14:43:32.048Z,30.70
2022-07-28T14:46:15.043Z,30.40
2022-07-28T14:48:46.065Z,30.20
2022-07-28T14:51:19.690Z,29.80
2022-07-28T14:53:51.405Z,29.20
2022-07-28T14:56:20.603Z,28.90
2022-07-28T14:58:48.722Z,29.20
2022-07-28T15:01:20.453Z,29.40
2022-07-28T15:03:48.674Z,28.60
2022-07-28T15:06:18.015Z,28.60
2022-07-28T15:08:46.166Z,28.60
2022-07-28T15:11:14.275Z,29.00
2022-07-28T15:13:42.327Z,29.10
2022-07-28T15:16:11.135Z,28.70
2022-07-28T15:18:39.193Z,28.50
2022-07-28T15:21:12.751Z,28.70
2022-07-28T15:23:42.535Z,28.60
2022-07-28T15:26:10.851Z,28.60
2022-07-28T15:28:42.354Z,28.30
2022-07-28T15:31:11.188Z,27.60
2022-07-28T15:33:47.866Z,27.10
2022-07-28T15:36:17.054Z,27.00
2022-07-28T15:38:50.845Z,26.60
2022-07-28T15:41:19.700Z,26.50
2022-07-28T15:43:47.865Z,27.10
2022-07-28T15:46:19.516Z,27.40
2022-07-28T15:48:47.731Z,27.80
2022-07-28T15:51:16.180Z,28.20
2022-07-28T15:53:46.207Z,28.00
2022-07-28T15:56:16.250Z,27.90
2022-07-28T15:58:48.431Z,27.50
2022-07-28T16:01:17.877Z,27.30
2022-07-28T16:03:46.165Z,26.60
2022-07-28T16:06:14.428Z,26.00
2022-07-28T16:08:42.926Z,25.80
2022-07-28T16:11:17.272Z,25.40
2022-07-28T16:13:46.917Z,25.00
2022-07-28T16:16:16.643Z,24.60
2022-07-28T16:18:44.879Z,24.80
2022-07-28T16:21:15.873Z,24.90
2022-07-28T16:23:44.061Z,24.90
2022-07-28T16:26:12.263Z,25.20
2022-07-28T16:28:40.353Z,25.30
2022-07-28T16:31:09.988Z,25.50
2022-07-28T16:33:38.608Z,25.40
2022-07-28T16:36:07.220Z,25.60
2022-07-28T16:38:36.072Z,25.30
2022-07-28T16:41:07.931Z,25.20
2022-07-28T16:43:39.672Z,25.00
2022-07-28T16:46:12.736Z,25.00
2022-07-28T16:48:41.365Z,25.00
2022-07-28T16:51:09.745Z,25.20
2022-07-28T16:53:37.921Z,25.20
2022-07-28T16:56:06.730Z,24.90
2022-07-28T16:58:34.913Z,24.70
2022-07-28T17:01:03.104Z,24.70
2022-07-28T17:03:32.519Z,24.80
2022-07-28T17:06:01.542Z,24.80
2022-07-28T17:08:29.733Z,24.60
2022-07-28T17:10:58.166Z,24.60
2022-07-28T17:13:26.462Z,24.30
2022-07-28T17:15:55.612Z,24.30
2022-07-28T17:18:24.051Z,24.40
2022-07-28T17:20:57.099Z,24.40
2022-07-28T17:23:26.085Z,24.40
2022-07-28T17:26:35.551Z,24.30
2022-07-28T17:28:45.521Z,24.20
2022-07-28T17:31:14.798Z,24.20
2022-07-28T17:33:43.203Z,24.00
2022-07-28T17:36:12.671Z,24.00
2022-07-28T17:38:41.132Z,23.90
2022-07-28T17:41:12.384Z,23.90
2022-07-28T17:43:45.382Z,24.00
2022-07-28T17:46:13.988Z,23.90
2022-07-28T17:48:42.688Z,23.70
2022-07-28T17:51:14.922Z,23.70
2022-07-28T17:53:45.169Z,23.60
2022-07-28T17:56:13.968Z,23.60
2022-07-28T17:58:43.010Z,23.60
2022-07-28T18:01:16.282Z,23.50
2022-07-28T18:03:56.644Z,23.50
2022-07-28T18:06:28.877Z,23.50
2022-07-28T18:08:57.118Z,23.40
2022-07-28T18:11:26.888Z,23.40
2022-07-28T18:14:04.964Z,23.30
2022-07-28T18:16:46.391Z,23.20
2022-07-28T18:19:15.204Z,23.10
2022-07-28T18:21:48.512Z,23.00
2022-07-28T18:24:18.092Z,23.00
2022-07-28T18:26:47.009Z,22.90
2022-07-28T18:29:15.533Z,22.80
2022-07-28T18:31:46.630Z,22.80
2022-07-28T18:34:16.270Z,22.70
2022-07-28T18:36:45.934Z,22.60
2022-07-28T18:39:17.129Z,22.40
2022-07-28T18:41:47.764Z,22.30
2022-07-28T18:44:18.367Z,22.20
2022-07-28T18:46:47.444Z,22.10
2022-07-28T18:49:16.274Z,22.00
2022-07-28T18:51:45.359Z,21.90
2022-07-28T18:54:27.574Z,21.90
2022-07-28T18:56:59.799Z,21.80
2022-07-28T18:59:28.798Z,21.70
2022-07-28T19:01:56.973Z,21.60
2022-07-28T19:04:26.275Z,21.50
2022-07-28T19:06:54.673Z,21.40
2022-07-28T19:09:24.309Z,21.30
2022-07-28T19:11:54.068Z,21.20
2022-07-28T19:14:23.169Z,21.20
2022-07-28T19:16:51.394Z,21.10
2022-07-28T19:19:20.235Z,21.00
2022-07-28T19:21:49.179Z,21.00
2022-07-28T19:24:18.344Z,20.90
2022-07-28T19:26:51.672Z,20.80
2022-07-28T19:29:20.408Z,20.80
2022-07-28T19:31:48.771Z,20.70
2022-07-28T19:34:17.411Z,20.70
2022-07-28T19:36:51.481Z,20.70
2022-07-28T19:39:19.989Z,20.70
2022-07-28T19:41:50.238Z,20.60
2022-07-28T19:44:19.310Z,20.60
2022-07-28T19:46:53.213Z,20.50
2022-07-28T19:49:22.248Z,20.40
2022-07-28T19:51:50.614Z,20.40
2022-07-28T19:54:21.187Z,20.40
2022-07-28T19:56:53.630Z,20.40
2022-07-28T19:59:27.312Z,20.40
2022-07-28T20:02:02.932Z,20.40
2022-07-28T20:04:32.185Z,20.40
2022-07-28T20:07:00.925Z,20.30
2022-07-28T20:09:30.171Z,20.30
2022-07-28T20:12:03.634Z,20.30
2022-07-28T20:14:31.765Z,20.20
2022-07-28T20:17:01.046Z,20.10
2022-07-28T20:19:30.207Z,20.00
2022-07-28T20:21:58.462Z,20.00
2022-07-28T20:24:27.335Z,19.90
2022-07-28T20:27:01.106Z,19.90
2022-07-28T20:29:30.881Z,19.90
2022-07-28T20:32:00.187Z,19.90
2022-07-28T20:34:32.283Z,19.80
2022-07-28T20:37:00.735Z,19.80
2022-07-28T20:39:44.528Z,19.70
2022-07-28T20:42:14.356Z,19.70
2022-07-28T20:44:47.692Z,19.60
2022-07-28T20:47:16.227Z,19.60
2022-07-28T20:49:44.453Z,19.50
2022-07-28T20:52:12.542Z,19.50
2022-07-28T20:54:41.229Z,19.40
2022-07-28T20:57:14.351Z,19.40
2022-07-28T20:59:43.607Z,19.30
2022-07-28T21:02:13.311Z,19.30
2022-07-28T21:04:41.476Z,19.30
2022-07-28T21:07:11.809Z,19.20
2022-07-28T21:09:44.107Z,19.20
2022-07-28T21:12:13.269Z,19.10
2022-07-28T21:14:42.118Z,19.20
2022-07-28T21:17:11.295Z,19.20
2022-07-28T21:19:44.297Z,19.10
2022-07-28T21:22:19.495Z,19.10
2022-07-28T21:24:51.769Z,19.10
2022-07-28T21:27:23.215Z,19.00
2022-07-28T21:32:19.247Z,19.10
2022-07-28T21:34:49.140Z,19.10
2022-07-28T21:37:21.557Z,19.10
2022-07-28T21:39:51.134Z,19.10
2022-07-28T21:42:19.260Z,19.20
2022-07-28T21:44:47.444Z,19.20
2022-07-28T21:47:15.776Z,19.10
2022-07-28T21:49:43.834Z,19.10
2022-07-28T21:52:17.236Z,19.10
2022-07-28T21:54:46.152Z,19.00
2022-07-28T21:57:22.489Z,19.00
2022-07-28T21:59:54.414Z,19.00
2022-07-28T22:02:24.116Z,19.00
2022-07-28T22:04:52.582Z,19.00
2022-07-28T22:07:25.631Z,19.00
2022-07-28T22:09:53.782Z,18.90
2022-07-28T22:12:23.160Z,18.90
2022-07-28T22:14:52.270Z,18.90
2022-07-28T22:17:21.303Z,18.90
2022-07-28T22:19:49.347Z,18.90
2022-07-28T22:22:23.308Z,18.80
2022-07-28T22:24:51.456Z,18.80
2022-07-28T22:27:19.918Z,18.80
2022-07-28T22:29:51.520Z,18.80
2022-07-28T22:32:28.649Z,18.80
2022-07-28T22:34:57.585Z,18.70
2022-07-28T22:37:31.352Z,18.70
2022-07-28T22:40:00.273Z,18.60
2022-07-28T22:42:28.395Z,18.60
2022-07-28T22:44:57.389Z,18.60
2022-07-28T22:47:25.438Z,18.50
2022-07-28T22:49:56.282Z,18.40
2022-07-28T22:52:31.323Z,18.40
2022-07-28T22:57:46.294Z,18.40
2022-07-28T23:00:15.302Z,18.30
2022-07-28T23:02:43.496Z,18.30
2022-07-28T23:05:12.212Z,18.20
2022-07-28T23:07:56.945Z,18.20
2022-07-28T23:10:49.770Z,18.20
2022-07-28T23:13:17.864Z,18.10
2022-07-28T23:15:46.338Z,18.00
2022-07-28T23:18:17.080Z,18.00
2022-07-28T23:20:46.383Z,18.00
2022-07-28T23:23:19.191Z,18.00
2022-07-28T23:25:47.425Z,17.90
2022-07-28T23:28:18.476Z,17.90
2022-07-28T23:30:48.235Z,18.00
2022-07-28T23:33:55.084Z,17.90
2022-07-28T23:36:16.876Z,17.90
2022-07-28T23:38:57.284Z,17.90
2022-07-28T23:41:26.334Z,17.80
2022-07-28T23:43:54.645Z,17.80
2022-07-28T23:46:25.663Z,17.90
2022-07-28T23:48:54.093Z,17.80
2022-07-28T23:51:22.725Z,17.80
2022-07-28T23:54:14.975Z,17.80
2022-07-28T23:56:45.383Z,17.80
2022-07-28T23:59:14.639Z,17.80
